createdAt,value
2022-12-28T00:00:30.954Z,91.26
2022-12-28T00:05:32.287Z,92.27
2022-12-28T00:11:07.579Z,93.24
2022-12-28T00:15:55.022Z,93.98
2022-12-28T00:21:00.062Z,93.89
2022-12-28T00:26:08.135Z,93.88
2022-12-28T00:31:09.575Z,94.10
2022-12-28T00:36:12.012Z,93.76
2022-12-28T00:41:13.365Z,93.98
2022-12-28T00:46:17.801Z,93.52
2022-12-28T00:51:19.721Z,93.05
2022-12-28T00:56:21.743Z,92.79
2022-12-28T01:01:23.684Z,92.30
2022-12-28T01:06:26.053Z,91.86
2022-12-28T01:11:29.017Z,91.70
2022-12-28T01:16:32.683Z,91.55
2022-12-28T01:21:34.885Z,90.87
2022-12-28T01:26:37.217Z,90.86
2022-12-28T01:31:38.796Z,90.80
2022-12-28T01:36:40.339Z,90.90
2022-12-28T01:41:42.315Z,90.73
2022-12-28T01:46:52.328Z,90.51
2022-12-28T01:51:53.665Z,90.43
2022-12-28T01:56:55.076Z,90.53
2022-12-28T02:01:57.824Z,90.52
2022-12-28T02:06:59.367Z,91.18
2022-12-28T02:12:01.121Z,91.52
2022-12-28T02:17:02.593Z,91.30
2022-12-28T02:22:03.916Z,91.57
2022-12-28T02:27:24.994Z,91.65
2022-12-28T02:32:30.067Z,91.60
2022-12-28T02:37:34.467Z,91.14
2022-12-28T02:42:36.694Z,91.56
2022-12-28T02:48:00.364Z,91.35
2022-12-28T02:53:26.609Z,92.20
2022-12-28T02:58:37.274Z,91.87
2022-12-28T03:03:38.642Z,91.71
2022-12-28T03:08:46.681Z,91.96
2022-12-28T03:13:56.266Z,92.05
2022-12-28T03:19:20.675Z,91.93
2022-12-28T03:24:41.565Z,91.95
2022-12-28T03:30:06.453Z,91.65
2022-12-28T03:35:09.801Z,91.82
2022-12-28T03:40:22.339Z,92.14
2022-12-28T03:45:45.505Z,92.31
2022-12-28T03:50:49.150Z,92.36
2022-12-28T03:55:52.267Z,92.43
2022-12-28T04:00:55.165Z,91.90
2022-12-28T04:05:57.762Z,92.17
2022-12-28T04:10:59.840Z,91.86
2022-12-28T04:16:19.507Z,92.31
2022-12-28T04:21:21.096Z,92.52
2022-12-28T04:26:22.905Z,92.82
2022-12-28T04:31:27.365Z,92.75
2022-12-28T04:36:34.315Z,92.80
2022-12-28T04:41:40.098Z,92.62
2022-12-28T04:46:41.558Z,92.96
2022-12-28T04:51:42.950Z,93.15
2022-12-28T04:56:44.306Z,92.90
2022-12-28T05:01:45.788Z,92.21
2022-12-28T05:06:47.253Z,92.33
2022-12-28T05:11:49.607Z,91.68
2022-12-28T05:16:52.037Z,92.16
2022-12-28T05:21:53.372Z,92.46
2022-12-28T05:26:54.713Z,92.26
2022-12-28T05:31:56.050Z,92.24
2022-12-28T05:36:57.415Z,92.35
2022-12-28T05:42:00.632Z,92.41
2022-12-28T05:47:02.005Z,92.28
2022-12-28T05:52:03.480Z,92.94
2022-12-28T05:57:04.813Z,93.11
2022-12-28T06:02:06.217Z,92.67
2022-12-28T06:07:07.657Z,92.92
2022-12-28T06:12:08.977Z,93.01
2022-12-28T06:17:10.292Z,93.43
2022-12-28T06:22:11.610Z,93.49
2022-12-28T06:27:12.916Z,93.59
2022-12-28T06:32:14.258Z,93.38
2022-12-28T06:37:15.629Z,93.09
2022-12-28T06:42:16.988Z,93.88
2022-12-28T06:47:18.308Z,93.80
2022-12-28T06:52:19.616Z,93.70
2022-12-28T06:57:20.953Z,93.82
2022-12-28T07:02:22.544Z,93.99
2022-12-28T07:07:23.924Z,93.85
2022-12-28T07:12:25.239Z,94.52
2022-12-28T07:17:26.574Z,94.24
2022-12-28T07:22:27.890Z,94.24
2022-12-28T07:27:29.220Z,94.52
2022-12-28T07:32:30.601Z,94.43
2022-12-28T07:37:32.001Z,95.03
2022-12-28T07:42:33.298Z,94.80
2022-12-28T07:47:34.644Z,94.92
2022-12-28T07:52:36.530Z,94.85
2022-12-28T07:57:37.880Z,95.27
2022-12-28T08:02:39.205Z,95.65
2022-12-28T08:07:40.524Z,95.47
2022-12-28T08:12:41.843Z,95.91
2022-12-28T08:17:43.157Z,95.75
2022-12-28T08:22:44.485Z,95.36
2022-12-28T08:27:45.821Z,95.48
2022-12-28T08:32:47.238Z,95.40
2022-12-28T08:37:48.564Z,94.78
2022-12-28T08:42:49.873Z,95.49
2022-12-28T08:47:51.293Z,94.98
2022-12-28T08:52:52.632Z,95.46
2022-12-28T08:57:53.976Z,95.19
2022-12-28T09:02:58.317Z,95.28
2022-12-28T09:07:59.963Z,95.84
2022-12-28T09:13:01.304Z,95.39
2022-12-28T09:18:02.758Z,96.34
2022-12-28T09:23:04.085Z,96.81
2022-12-28T09:28:05.417Z,96.77
2022-12-28T09:33:25.625Z,96.35
2022-12-28T09:38:26.986Z,96.04
2022-12-28T09:43:28.320Z,96.66
2022-12-28T09:48:31.016Z,96.87
2022-12-28T09:53:34.264Z,97.01
2022-12-28T09:58:41.180Z,96.22
2022-12-28T10:03:45.732Z,96.59
2022-12-28T10:08:49.464Z,96.24
2022-12-28T10:13:56.197Z,96.40
2022-12-28T10:18:58.488Z,97.08
2022-12-28T10:29:22.746Z,95.39
2022-12-28T10:34:25.053Z,95.85
2022-12-28T10:39:31.027Z,95.42
2022-12-28T10:44:41.583Z,96.08
2022-12-28T10:50:02.866Z,96.67
2022-12-28T10:55:26.584Z,96.27
2022-12-28T11:00:28.417Z,96.15
2022-12-28T11:05:30.345Z,95.83
2022-12-28T11:10:32.459Z,95.66
2022-12-28T11:15:33.875Z,95.57
2022-12-28T11:20:37.991Z,95.49
2022-12-28T11:25:40.917Z,94.34
2022-12-28T11:30:42.852Z,94.40
2022-12-28T11:35:44.713Z,94.39
2022-12-28T11:40:46.069Z,94.37
2022-12-28T11:45:51.236Z,93.64
2022-12-28T11:50:52.716Z,93.74
2022-12-28T11:56:03.789Z,93.54
2022-12-28T12:01:08.759Z,93.34
2022-12-28T12:06:10.135Z,92.91
2022-12-28T12:11:26.703Z,92.16
2022-12-28T12:16:35.884Z,92.02
2022-12-28T12:21:40.265Z,92.01
2022-12-28T12:26:50.743Z,91.96
2022-12-28T12:32:01.521Z,91.06
2022-12-28T12:37:05.867Z,90.91
2022-12-28T12:42:07.203Z,91.13
2022-12-28T12:47:23.985Z,91.10
2022-12-28T12:52:42.793Z,91.20
2022-12-28T12:57:50.093Z,91.07
2022-12-28T13:03:07.308Z,91.08
2022-12-28T13:08:19.492Z,91.60
2022-12-28T13:13:41.194Z,92.44
2022-12-28T13:18:52.562Z,92.30
2022-12-28T13:23:54.120Z,92.91
2022-12-28T13:29:02.908Z,92.51
2022-12-28T13:34:06.325Z,93.06
2022-12-28T13:39:12.223Z,93.14
2022-12-28T13:44:22.415Z,93.35
2022-12-28T13:49:25.245Z,93.69
2022-12-28T13:54:26.712Z,92.97
2022-12-28T13:59:28.079Z,93.43
2022-12-28T14:09:52.296Z,93.27
2022-12-28T14:14:53.896Z,94.13
2022-12-28T14:19:57.540Z,93.34
2022-12-28T14:25:07.331Z,93.50
2022-12-28T14:30:21.671Z,93.12
2022-12-28T14:35:24.981Z,92.61
2022-12-28T14:40:31.252Z,92.99
2022-12-28T14:46:07.170Z,92.64
2022-12-28T14:51:03.597Z,92.19
2022-12-28T14:56:13.603Z,92.64
2022-12-28T15:01:15.193Z,92.38
2022-12-28T15:06:22.193Z,92.92
2022-12-28T15:11:24.807Z,92.97
2022-12-28T15:16:26.168Z,92.83
2022-12-28T15:21:27.552Z,92.56
2022-12-28T15:26:28.939Z,93.17
2022-12-28T15:31:30.329Z,92.90
2022-12-28T15:36:31.766Z,93.00
2022-12-28T15:41:48.730Z,92.94
2022-12-28T15:46:50.400Z,93.36
2022-12-28T15:51:51.917Z,92.85
2022-12-28T15:56:53.957Z,93.27
2022-12-28T16:01:55.587Z,93.36
2022-12-28T16:06:57.111Z,93.13
2022-12-28T16:11:58.430Z,93.07
2022-12-28T16:16:59.935Z,93.29
2022-12-28T16:22:01.290Z,92.71
2022-12-28T16:27:03.073Z,93.03
2022-12-28T16:32:04.680Z,92.71
2022-12-28T16:37:06.164Z,92.49
2022-12-28T16:42:08.443Z,92.95
2022-12-28T16:47:11.265Z,92.77
2022-12-28T16:52:12.660Z,92.78
2022-12-28T16:57:14.001Z,93.31
2022-12-28T17:02:15.547Z,93.39
2022-12-28T17:07:17.114Z,93.09
2022-12-28T17:12:18.449Z,92.84
2022-12-28T17:17:19.787Z,93.26
2022-12-28T17:22:21.222Z,93.19
2022-12-28T17:27:22.551Z,93.41
2022-12-28T17:32:23.975Z,92.89
2022-12-28T17:37:25.348Z,93.69
2022-12-28T17:42:26.718Z,93.24
2022-12-28T17:47:28.636Z,93.13
2022-12-28T17:52:30.084Z,93.32
2022-12-28T17:57:35.450Z,92.81
2022-12-28T18:02:40.225Z,92.83
2022-12-28T18:07:41.714Z,93.09
2022-12-28T18:12:43.044Z,93.74
2022-12-28T18:17:44.360Z,93.22
2022-12-28T18:22:45.713Z,92.99
2022-12-28T18:27:47.040Z,93.27
2022-12-28T18:32:48.365Z,92.55
2022-12-28T18:37:49.680Z,93.16
2022-12-28T18:42:51.106Z,93.14
2022-12-28T18:47:52.426Z,92.68
2022-12-28T18:52:53.753Z,93.01
2022-12-28T18:57:55.060Z,93.56
2022-12-28T19:02:56.515Z,93.49
2022-12-28T19:07:57.973Z,93.55
2022-12-28T19:12:59.342Z,93.76
2022-12-28T19:18:00.657Z,93.73
2022-12-28T19:23:02.140Z,93.38
2022-12-28T19:28:04.146Z,93.10
2022-12-28T19:33:05.464Z,92.83
2022-12-28T19:38:06.826Z,93.34
2022-12-28T19:43:08.229Z,93.01
2022-12-28T19:48:09.590Z,93.41
2022-12-28T19:53:10.915Z,93.11
2022-12-28T19:58:12.280Z,93.43
2022-12-28T20:03:13.715Z,93.43
2022-12-28T20:08:15.213Z,93.04
2022-12-28T20:13:16.517Z,93.35
2022-12-28T20:18:19.324Z,93.31
2022-12-28T20:23:20.621Z,92.91
2022-12-28T20:28:22.007Z,93.41
2022-12-28T20:33:23.327Z,92.60
2022-12-28T20:38:24.986Z,93.02
2022-12-28T20:43:26.322Z,92.68
2022-12-28T20:48:28.050Z,93.23
2022-12-28T20:53:29.359Z,92.87
2022-12-28T20:58:30.676Z,93.41
2022-12-28T21:03:32.524Z,93.09
2022-12-28T21:08:33.914Z,92.91
2022-12-28T21:13:39.274Z,93.00
2022-12-28T21:18:44.389Z,93.07
2022-12-28T21:23:45.846Z,92.50
2022-12-28T21:28:47.376Z,92.58
2022-12-28T21:33:48.697Z,91.98
2022-12-28T21:38:50.710Z,92.14
2022-12-28T21:43:52.190Z,92.42
2022-12-28T21:48:53.508Z,92.11
2022-12-28T21:53:55.049Z,92.46
2022-12-28T21:58:57.250Z,91.43
2022-12-28T22:04:17.336Z,91.62
2022-12-28T22:09:37.730Z,91.63
2022-12-28T22:14:39.058Z,92.13
2022-12-28T22:19:40.472Z,91.63
2022-12-28T22:24:41.778Z,91.74
2022-12-28T22:29:43.083Z,91.73
2022-12-28T22:34:44.480Z,92.65
2022-12-28T22:39:45.796Z,92.19
2022-12-28T22:44:47.318Z,92.32
2022-12-28T22:49:48.714Z,92.47
2022-12-28T22:54:50.974Z,91.40
2022-12-28T22:59:52.321Z,92.06
2022-12-28T23:04:53.654Z,92.36
2022-12-28T23:09:55.053Z,92.53
2022-12-28T23:15:15.283Z,92.42
2022-12-28T23:20:35.754Z,91.78
2022-12-28T23:25:57.731Z,91.99
2022-12-28T23:31:00.765Z,91.50
2022-12-28T23:36:03.396Z,91.75
2022-12-28T23:41:23.972Z,91.93
2022-12-28T23:46:25.313Z,91.05
2022-12-28T23:51:26.634Z,91.19
2022-12-28T23:56:28.084Z,90.82
